Blair, NE (68008)

9:06 AM CDT on July 23, 2016 (GMT -0500)
CR 32 | | Change Station
Active Advisory: Excessive Heat Warning

Elev 1240 ft 41.47 °N, 96.13 °W | Updated 1 minute ago

Scattered Clouds
Scattered Clouds
79.0 °F
Feels Like 83 °F
N
5.0
Wind Variable Wind from SSW
Gusts 12.0 mph

Today
High -- | Low -- °F
--% Chance of Precip.
Yesterday
High -- | Low -- °F
Precip. -- in
Pressure 29.85 in
Visibility 10.0 miles
Clouds Scattered Clouds 12000 ft
Heat Index 83 °F
Dew Point 75 °F
Humidity 88%
Rainfall 0.00 in
Snow Depth Not available.
6:11 AM 8:50 PM
Waning Gibbous, 85% visible
METAR KBTA 231355Z AUTO 21010G15KT 10SM SCT120 27/22 A2985 RMK AO2 T02700218
Pressure 29.85 in
Visibility 10.0 miles
Clouds Scattered Clouds 12000 ft
Heat Index 83 °F
Dew Point 75 °F
Humidity 88%
Rainfall 0.00 in
Snow Depth Not available.
6:11 AM 8:50 PM
Waning Gibbous, 85% visible
METAR KBTA 231355Z AUTO 21010G15KT 10SM SCT120 27/22 A2985 RMK AO2 T02700218

10-Day Weather Forecast

Almanac

Astronomy

Jul. 23, 2016 Rise Set
Actual Time
Civil Twilight
Nautical Twilight
Astronomical Twilight
Moon
Length of Visible Light
Length of Day
Tomorrow will be .
, % of the Moon is Illuminated

Today's Extremes

State Highs State Lows

Community

WunderPhotos

Upload Photos

1,926,821 photos uploaded!

WunderBlog® & News

Nearby

Air Quality

  Air Quality AQ Index Pollutant
Not available.

Snow Depth

Station Depth Elevation

Earthquake Activity

City Distance Mag. Time & Date
Minimum magnitude displayed is 2.5.

Coastal Water Temperatures

Place Temperature

Stations

Nearby Weather Stations

Station Location Temp. Windchill Dew Point Humidity Wind Precip. Elev Updated Type
                   

Watches & Warnings

Excessive Heat Warning
Issued: 3:55 AM CDT Jul. 23, 2016 – National Weather Service

... Excessive heat warning remains in effect until 7 PM CDT this
evening...

* temperature... temperatures will climb into the lower and mid
90ss during the afternoon today. This coupled with moisture will
create heat index values of 100 to 108 degrees.

* Impacts... the longevity of the heat event will result in a
potentially dangerous situation for sensitive groups...
including children... the elderly... or those with medical
conditions. Leaving a child or pet in an enclosed vehicle can
be deadly... even for a short period of time. Heat deaths are
preventable. Check on people who live in buildings without air
conditioning.

Precautionary/preparedness actions...

An excessive heat warning means that a prolonged period of
dangerously hot temperatures will occur. The combination of hot
temperatures and high humidity will combine to create a dangerous
situation in which heat illnesses are likely. Drink plenty of
fluids... stay in an air-conditioned room... stay out of the
sun... and check up on relatives and neighbors.